< < Back
Terminal Aerodrome Forecast


Current Version              Previous Versions:   1  2  3  4  5  6  7  8  9  

Terminal Aerodrome Forecast

131
FTUS42 KFFC 281124
TAFPDK
TAF
KPDK 281124Z 2812/2912 VRB03KT P6SM FEW007 SCT120
     FM281400 33006KT P6SM SCT012 BKN040
      TEMPO 2815/2819 5SM TSRA BR BKN030CB
     FM281900 02009KT P6SM SCT040 BKN120
     FM290200 02004KT P6SM SCT060
     FM291000 33003KT P6SM SCT250=

Latest METAR

404
SAUS70 KWBC 281100 RRK
MTRPDK
METAR KPDK 281053Z 00000KT 10SM FEW110 23/21 A3001 RMK AO2 SLP141
T02330206


USA.gov is the U.S. government's official web portal to all federal, state and local government web resources and services.